createdAt,value
2023-01-02T00:00:17.416Z,48.12
2023-01-02T00:01:13.909Z,33.76
2023-01-02T00:02:13.242Z,22.88
2023-01-02T00:03:13.748Z,13.52
2023-01-02T00:04:13.802Z,37.84
2023-01-02T00:05:13.904Z,40.56
2023-01-02T00:06:13.214Z,40.00
2023-01-02T00:07:13.640Z,50.36
2023-01-02T00:08:14.316Z,38.12
2023-01-02T00:09:13.345Z,29.84
2023-01-02T00:10:13.303Z,34.12
2023-01-02T00:11:13.289Z,25.96
2023-01-02T00:12:13.245Z,26.92
2023-01-02T00:13:13.252Z,11.12
2023-01-02T00:14:13.591Z,15.56
2023-01-02T00:15:13.534Z,20.40
2023-01-02T00:16:13.917Z,21.60
2023-01-02T00:17:13.329Z,22.12
2023-01-02T00:18:13.412Z,36.36
2023-01-02T00:19:13.396Z,27.44
2023-01-02T00:20:13.327Z,22.16
2023-01-02T00:21:13.417Z,31.40
2023-01-02T00:22:13.363Z,23.52
2023-01-02T00:23:13.716Z,38.48
2023-01-02T00:24:13.792Z,45.12
2023-01-02T00:25:14.006Z,30.72
2023-01-02T00:26:13.000Z,32.52
2023-01-02T00:27:13.133Z,42.72
2023-01-02T00:28:13.206Z,38.24
2023-01-02T00:29:13.160Z,22.48
2023-01-02T00:30:13.337Z,18.60
2023-01-02T00:31:13.889Z,25.76
2023-01-02T00:32:13.358Z,33.64
2023-01-02T00:33:13.479Z,28.36
2023-01-02T00:34:13.551Z,21.52
2023-01-02T00:35:13.732Z,43.84
2023-01-02T00:36:14.037Z,25.40
2023-01-02T00:37:13.069Z,25.64
2023-01-02T00:38:12.980Z,25.12
2023-01-02T00:39:14.058Z,40.64
2023-01-02T00:40:13.383Z,29.76
2023-01-02T00:41:13.525Z,45.20
2023-01-02T00:42:13.489Z,37.28
2023-01-02T00:43:13.547Z,41.00
2023-01-02T00:44:13.493Z,35.04
2023-01-02T00:45:13.723Z,52.48
2023-01-02T00:46:13.930Z,36.80
2023-01-02T00:47:12.965Z,33.00
2023-01-02T00:48:12.944Z,50.56
2023-01-02T00:49:12.947Z,32.84
2023-01-02T00:50:13.013Z,24.12
2023-01-02T00:51:13.019Z,30.72
2023-01-02T00:52:13.066Z,29.96
2023-01-02T00:53:13.634Z,52.36
2023-01-02T00:54:13.980Z,36.96
2023-01-02T00:55:12.923Z,46.20
2023-01-02T00:56:12.937Z,47.00
2023-01-02T00:57:13.403Z,34.72
2023-01-02T00:58:13.398Z,45.88
2023-01-02T00:59:13.600Z,37.84
2023-01-02T01:00:18.411Z,39.28
2023-01-02T01:01:14.241Z,24.56
2023-01-02T01:02:13.707Z,36.60
2023-01-02T01:03:13.842Z,26.56
2023-01-02T01:04:14.147Z,20.32
2023-01-02T01:05:13.245Z,16.60
2023-01-02T01:06:13.631Z,15.88
2023-01-02T01:07:13.615Z,14.52
2023-01-02T01:08:13.878Z,22.72
2023-01-02T01:09:13.931Z,29.80
2023-01-02T01:10:13.009Z,15.64
2023-01-02T01:11:18.504Z,28.28
2023-01-02T01:12:13.570Z,20.20
2023-01-02T01:13:13.532Z,14.76
2023-01-02T01:14:13.882Z,21.48
2023-01-02T01:15:14.058Z,9.64
2023-01-02T01:16:13.242Z,14.68
2023-01-02T01:17:13.278Z,23.04
2023-01-02T01:18:13.221Z,22.16
2023-01-02T01:19:13.275Z,11.72
2023-01-02T01:20:13.633Z,14.76
2023-01-02T01:21:13.660Z,19.20
2023-01-02T01:22:13.828Z,26.40
2023-01-02T01:23:14.079Z,20.36
2023-01-02T01:24:13.044Z,14.24
2023-01-02T01:25:13.287Z,20.12
2023-01-02T01:26:13.485Z,20.92
2023-01-02T01:27:13.779Z,15.48
2023-01-02T01:28:14.246Z,26.76
2023-01-02T01:29:13.343Z,18.92
2023-01-02T01:30:13.783Z,12.76
2023-01-02T01:31:14.388Z,10.52
2023-01-02T01:32:13.839Z,8.52
2023-01-02T01:33:13.930Z,12.68
2023-01-02T01:34:13.190Z,12.24
2023-01-02T01:35:13.268Z,7.80
2023-01-02T01:36:13.556Z,5.96
2023-01-02T01:37:13.878Z,5.68
2023-01-02T01:38:13.809Z,7.44
2023-01-02T01:39:14.161Z,9.92
2023-01-02T01:40:13.101Z,5.24
2023-01-02T01:41:13.239Z,6.24
2023-01-02T01:42:13.279Z,5.24
2023-01-02T01:43:13.143Z,3.80
2023-01-02T01:44:13.443Z,5.24
2023-01-02T01:45:13.514Z,4.88
2023-01-02T01:46:13.672Z,8.32
2023-01-02T01:47:13.830Z,8.80
2023-01-02T01:48:13.774Z,6.12
2023-01-02T01:49:13.898Z,8.48
2023-01-02T01:50:13.795Z,8.76
2023-01-02T01:51:13.867Z,6.40
2023-01-02T01:52:14.081Z,10.16
2023-01-02T01:53:13.139Z,9.80
2023-01-02T01:54:13.614Z,7.64
2023-01-02T01:55:13.609Z,6.64
2023-01-02T01:56:13.716Z,11.00
2023-01-02T01:57:13.741Z,14.48
2023-01-02T01:58:14.055Z,10.16
2023-01-02T01:59:13.321Z,13.00
2023-01-02T02:00:13.486Z,8.52
2023-01-02T02:01:13.944Z,6.48
2023-01-02T02:02:13.357Z,16.60
2023-01-02T02:03:13.699Z,13.64
2023-01-02T02:04:14.135Z,12.04
2023-01-02T02:05:13.085Z,12.72
2023-01-02T02:06:13.040Z,9.40
2023-01-02T02:07:13.558Z,7.24
2023-01-02T02:08:13.909Z,11.72
2023-01-02T02:09:13.015Z,22.00
2023-01-02T02:10:13.051Z,17.12
2023-01-02T02:11:13.330Z,14.00
2023-01-02T02:12:13.990Z,14.96
2023-01-02T02:13:12.977Z,27.36
2023-01-02T02:14:13.086Z,11.00
2023-01-02T02:15:13.139Z,10.80
2023-01-02T02:16:13.077Z,14.60
2023-01-02T02:17:13.378Z,18.92
2023-01-02T02:18:13.586Z,18.40
2023-01-02T02:19:13.975Z,8.08
2023-01-02T02:20:13.000Z,20.76
2023-01-02T02:21:12.978Z,13.76
2023-01-02T02:22:13.231Z,10.48
2023-01-02T02:23:13.206Z,18.08
2023-01-02T02:24:13.163Z,12.20
2023-01-02T02:25:13.314Z,15.08
2023-01-02T02:26:13.297Z,15.16
2023-01-02T02:27:13.738Z,14.16
2023-01-02T02:28:13.902Z,10.12
2023-01-02T02:29:12.943Z,23.92
2023-01-02T02:30:13.850Z,13.24
2023-01-02T02:31:13.856Z,18.56
2023-01-02T02:32:13.749Z,10.44
2023-01-02T02:33:13.715Z,13.00
2023-01-02T02:34:14.075Z,16.00
2023-01-02T02:35:12.958Z,9.80
2023-01-02T02:36:13.769Z,27.28
2023-01-02T02:37:13.858Z,28.84
2023-01-02T02:38:13.813Z,28.32
2023-01-02T02:39:13.932Z,19.28
2023-01-02T02:40:12.781Z,14.16
2023-01-02T02:41:13.826Z,12.20
2023-01-02T02:42:14.093Z,20.92
2023-01-02T02:43:12.965Z,20.48
2023-01-02T02:44:12.808Z,23.76
2023-01-02T02:45:13.978Z,15.40
2023-01-02T02:46:13.055Z,15.08
2023-01-02T02:47:13.166Z,10.92
2023-01-02T02:48:13.111Z,13.04
2023-01-02T02:49:13.267Z,17.80
2023-01-02T02:50:13.345Z,13.04
2023-01-02T02:51:13.285Z,11.12
2023-01-02T02:52:13.318Z,14.92
2023-01-02T02:53:13.186Z,17.88
2023-01-02T02:54:13.141Z,36.24
2023-01-02T02:55:13.176Z,16.68
2023-01-02T02:56:13.238Z,24.84
2023-01-02T02:57:13.350Z,15.76
2023-01-02T02:58:13.773Z,13.88
2023-01-02T02:59:13.700Z,20.80
2023-01-02T03:00:13.884Z,14.00
2023-01-02T03:01:12.972Z,10.72
2023-01-02T03:02:13.359Z,24.48
2023-01-02T03:03:13.577Z,16.44
2023-01-02T03:04:13.691Z,16.36
2023-01-02T03:05:13.776Z,12.68
2023-01-02T03:06:14.220Z,20.04
2023-01-02T03:07:13.532Z,35.04
2023-01-02T03:08:13.866Z,23.72
2023-01-02T03:09:13.051Z,24.40
2023-01-02T03:10:13.089Z,13.96
2023-01-02T03:11:13.331Z,15.68
2023-01-02T03:12:13.343Z,13.44
2023-01-02T03:13:13.784Z,11.24
2023-01-02T03:14:13.712Z,10.80
2023-01-02T03:15:13.786Z,15.48
2023-01-02T03:16:14.028Z,6.32
2023-01-02T03:17:13.100Z,12.16
2023-01-02T03:18:12.981Z,20.64
2023-01-02T03:19:13.366Z,12.56
2023-01-02T03:20:13.437Z,6.72
2023-01-02T03:21:13.493Z,7.84
2023-01-02T03:22:13.410Z,11.56
2023-01-02T03:23:13.262Z,10.96
2023-01-02T03:24:13.143Z,7.28
2023-01-02T03:25:13.475Z,10.64
2023-01-02T03:26:13.437Z,7.80
2023-01-02T03:27:13.471Z,6.48
2023-01-02T03:28:13.748Z,15.08
2023-01-02T03:29:13.613Z,24.76
2023-01-02T03:30:13.510Z,13.76
2023-01-02T03:31:13.592Z,9.96
2023-01-02T03:32:13.537Z,11.92
2023-01-02T03:33:13.572Z,4.68
2023-01-02T03:34:13.762Z,2.04
2023-01-02T03:35:13.676Z,3.76
2023-01-02T03:36:13.629Z,6.84
2023-01-02T03:37:13.540Z,6.56
2023-01-02T03:38:13.775Z,9.84
2023-01-02T03:39:13.676Z,8.52
2023-01-02T03:40:13.735Z,10.92
2023-01-02T03:41:13.789Z,8.32
2023-01-02T03:42:13.726Z,12.96
2023-01-02T03:43:13.635Z,13.24
2023-01-02T03:44:14.092Z,12.72
2023-01-02T03:45:13.228Z,5.84
2023-01-02T03:46:13.294Z,5.44
2023-01-02T03:47:13.927Z,10.76
2023-01-02T03:48:13.029Z,9.76
2023-01-02T03:49:13.340Z,5.16
2023-01-02T03:50:13.586Z,5.08
2023-01-02T03:51:14.741Z,12.20
2023-01-02T03:52:13.820Z,7.64
2023-01-02T03:53:13.780Z,9.04
2023-01-02T03:54:13.889Z,4.16
2023-01-02T03:55:13.414Z,12.64
2023-01-02T03:56:13.375Z,8.76
2023-01-02T03:57:13.381Z,10.56
2023-01-02T03:58:13.492Z,13.48
2023-01-02T03:59:13.410Z,14.52
2023-01-02T04:00:13.409Z,13.96
2023-01-02T04:01:14.504Z,8.84
2023-01-02T04:02:14.141Z,6.04
2023-01-02T04:03:13.463Z,9.76
2023-01-02T04:04:14.425Z,9.84
2023-01-02T04:05:13.379Z,7.04
2023-01-02T04:06:13.578Z,8.76
2023-01-02T04:07:13.776Z,8.72
2023-01-02T04:08:13.751Z,3.48
2023-01-02T04:09:13.709Z,4.52
2023-01-02T04:10:18.647Z,9.40
2023-01-02T04:11:13.616Z,8.20
2023-01-02T04:12:13.825Z,13.00
2023-01-02T04:13:13.795Z,13.00
2023-01-02T04:14:13.873Z,5.24
2023-01-02T04:15:13.921Z,8.04
2023-01-02T04:16:13.120Z,7.16
2023-01-02T04:17:13.063Z,2.16
2023-01-02T04:18:13.025Z,3.12
2023-01-02T04:19:12.924Z,5.40
2023-01-02T04:20:12.824Z,5.52
2023-01-02T04:21:13.785Z,8.44
2023-01-02T04:22:13.677Z,7.40
2023-01-02T04:23:13.754Z,3.96
2023-01-02T04:24:13.736Z,10.12
2023-01-02T04:25:13.825Z,9.96
2023-01-02T04:26:14.122Z,8.60
2023-01-02T04:27:12.967Z,6.72
2023-01-02T04:28:12.960Z,6.32
2023-01-02T04:29:12.832Z,3.64
2023-01-02T04:30:14.056Z,6.00
2023-01-02T04:31:13.041Z,5.24
2023-01-02T04:32:12.956Z,3.28
2023-01-02T04:33:12.874Z,5.28
2023-01-02T04:34:14.148Z,5.12
2023-01-02T04:35:13.132Z,5.28
2023-01-02T04:36:13.143Z,4.60
2023-01-02T04:37:13.079Z,5.88
2023-01-02T04:38:13.103Z,5.12
2023-01-02T04:39:13.082Z,11.96
2023-01-02T04:40:13.025Z,8.88
2023-01-02T04:41:12.902Z,12.72
2023-01-02T04:42:12.870Z,8.04
2023-01-02T04:43:13.786Z,4.68
2023-01-02T04:44:13.735Z,8.60
2023-01-02T04:45:14.235Z,6.04
2023-01-02T04:46:13.202Z,8.48
2023-01-02T04:47:18.227Z,7.08
2023-01-02T04:48:13.552Z,3.52
2023-01-02T04:49:13.431Z,7.20
2023-01-02T04:50:13.365Z,7.44
2023-01-02T04:51:13.327Z,5.56
2023-01-02T04:52:13.348Z,7.20
2023-01-02T04:53:14.146Z,4.36
2023-01-02T04:54:13.052Z,7.36
2023-01-02T04:55:13.032Z,6.72
2023-01-02T04:56:12.996Z,6.72
2023-01-02T04:57:12.925Z,6.04
2023-01-02T04:58:13.151Z,4.20
2023-01-02T04:59:13.333Z,6.88
2023-01-02T05:00:13.216Z,5.76
2023-01-02T05:01:13.360Z,5.45
2023-01-02T05:02:13.559Z,2.32
2023-01-02T05:03:13.567Z,2.08
2023-01-02T05:04:13.715Z,5.52
2023-01-02T05:05:13.644Z,5.08
2023-01-02T05:06:13.617Z,6.16
2023-01-02T05:07:13.791Z,3.52
2023-01-02T05:08:16.309Z,5.88
2023-01-02T05:09:14.081Z,3.84
2023-01-02T05:10:14.146Z,7.32
2023-01-02T05:11:13.033Z,16.24
2023-01-02T05:12:12.965Z,13.52
2023-01-02T05:13:12.888Z,12.68
2023-01-02T05:14:12.789Z,11.44
2023-01-02T05:15:14.038Z,19.92
2023-01-02T05:16:12.958Z,13.48
2023-01-02T05:17:12.878Z,5.52
2023-01-02T05:18:12.869Z,13.12
2023-01-02T05:19:13.771Z,16.20
2023-01-02T05:20:13.736Z,32.68
2023-01-02T05:21:13.959Z,12.20
2023-01-02T05:22:12.904Z,14.76
2023-01-02T05:23:13.092Z,11.88
2023-01-02T05:24:13.252Z,8.76
2023-01-02T05:25:13.506Z,15.36
2023-01-02T05:26:13.636Z,13.40
2023-01-02T05:27:13.748Z,23.92
2023-01-02T05:28:13.723Z,25.96
2023-01-02T05:29:13.704Z,23.16
2023-01-02T05:30:13.887Z,13.88
2023-01-02T05:31:13.113Z,14.80
2023-01-02T05:32:13.542Z,21.00
2023-01-02T05:33:13.553Z,16.20
2023-01-02T05:34:13.577Z,9.04
2023-01-02T05:35:13.643Z,13.52
2023-01-02T05:36:13.652Z,24.36
2023-01-02T05:37:13.617Z,33.92
2023-01-02T05:38:13.806Z,20.92
2023-01-02T05:39:14.092Z,21.28
2023-01-02T05:40:13.003Z,26.20
2023-01-02T05:41:13.168Z,26.24
2023-01-02T05:42:13.170Z,29.72
2023-01-02T05:43:13.168Z,35.84
2023-01-02T05:44:13.243Z,23.20
2023-01-02T05:45:13.321Z,15.84
2023-01-02T05:46:13.445Z,29.72
2023-01-02T05:47:16.426Z,33.24
2023-01-02T05:48:13.866Z,16.84
2023-01-02T05:49:13.787Z,12.84
2023-01-02T05:50:13.691Z,17.28
2023-01-02T05:51:13.642Z,16.24
2023-01-02T05:52:13.614Z,15.68
2023-01-02T05:53:14.012Z,5.76
2023-01-02T05:54:12.835Z,8.20
2023-01-02T05:55:13.859Z,13.44
2023-01-02T05:56:14.082Z,27.04
2023-01-02T05:57:13.049Z,15.88
2023-01-02T05:58:13.095Z,9.12
2023-01-02T05:59:13.020Z,24.92
2023-01-02T06:00:13.123Z,17.44
2023-01-02T06:01:13.276Z,36.60
2023-01-02T06:02:13.712Z,21.56
2023-01-02T06:03:13.936Z,13.60
2023-01-02T06:04:19.328Z,15.44
2023-01-02T06:05:14.041Z,16.52
2023-01-02T06:06:13.004Z,22.00
2023-01-02T06:07:12.941Z,16.04
2023-01-02T06:08:12.881Z,18.20
2023-01-02T06:09:13.835Z,23.24
2023-01-02T06:10:13.707Z,27.28
2023-01-02T06:11:13.912Z,24.76
2023-01-02T06:12:12.880Z,31.76
2023-01-02T06:13:13.320Z,22.28
2023-01-02T06:14:13.383Z,15.20
2023-01-02T06:15:13.347Z,20.24
2023-01-02T06:16:13.601Z,42.64
2023-01-02T06:17:13.644Z,20.88
2023-01-02T06:18:13.572Z,14.76
2023-01-02T06:19:13.731Z,14.08
2023-01-02T06:20:13.797Z,13.32
2023-01-02T06:21:13.762Z,11.80
2023-01-02T06:22:13.702Z,14.12
2023-01-02T06:23:13.987Z,18.44
2023-01-02T06:24:12.910Z,14.24
2023-01-02T06:25:12.778Z,22.24
2023-01-02T06:26:13.756Z,14.28
2023-01-02T06:27:13.786Z,24.48
2023-01-02T06:28:13.740Z,23.60
2023-01-02T06:29:13.689Z,26.88
2023-01-02T06:30:13.618Z,23.72
2023-01-02T06:31:13.959Z,13.44
2023-01-02T06:32:13.261Z,18.84
2023-01-02T06:33:13.575Z,13.96
2023-01-02T06:34:13.450Z,17.32
2023-01-02T06:35:13.469Z,17.68
2023-01-02T06:36:13.430Z,20.60
2023-01-02T06:37:13.710Z,16.04
2023-01-02T06:38:13.674Z,19.20
2023-01-02T06:40:13.298Z,16.32
2023-01-02T06:41:13.110Z,15.00
2023-01-02T06:42:13.010Z,16.44
2023-01-02T06:43:12.985Z,24.80
2023-01-02T06:44:12.936Z,26.08
2023-01-02T06:45:18.053Z,24.52
2023-01-02T06:46:13.078Z,22.44
2023-01-02T06:47:13.130Z,13.56
2023-01-02T06:48:13.198Z,16.28
2023-01-02T06:49:13.472Z,24.64
2023-01-02T06:50:13.468Z,24.56
2023-01-02T06:51:13.659Z,25.48
2023-01-02T06:52:13.990Z,19.92
2023-01-02T06:53:12.914Z,14.64
2023-01-02T06:54:12.862Z,14.16
2023-01-02T06:55:13.807Z,27.88
2023-01-02T06:56:13.960Z,36.00
2023-01-02T06:57:13.132Z,30.36
2023-01-02T06:58:17.592Z,44.72
2023-01-02T06:59:13.520Z,34.72
2023-01-02T07:00:13.753Z,36.80
2023-01-02T07:01:13.751Z,43.04
2023-01-02T07:02:13.871Z,28.52
2023-01-02T07:03:12.913Z,29.56
2023-01-02T07:04:12.904Z,28.48
2023-01-02T07:05:12.772Z,21.56
2023-01-02T07:06:13.694Z,18.51
2023-01-02T07:07:14.061Z,20.52
2023-01-02T07:08:13.218Z,25.20
2023-01-02T07:40:04.225Z,29.40
2023-01-02T07:40:13.311Z,29.47
2023-01-02T07:41:13.533Z,15.60
2023-01-02T07:42:13.552Z,19.92
2023-01-02T07:43:13.500Z,10.00
2023-01-02T07:44:13.435Z,10.96
2023-01-02T07:45:13.362Z,23.12
2023-01-02T07:46:13.417Z,30.36
2023-01-02T07:47:13.644Z,26.44
2023-01-02T07:48:13.625Z,20.24
2023-01-02T07:49:13.845Z,22.40
2023-01-02T07:50:13.981Z,12.80
2023-01-02T07:51:12.925Z,21.56
2023-01-02T07:52:12.903Z,20.24
2023-01-02T07:53:12.826Z,13.72
2023-01-02T07:54:13.709Z,11.20
2023-01-02T07:55:13.903Z,7.76
2023-01-02T07:56:13.076Z,8.32
2023-01-02T07:57:13.188Z,17.60
2023-01-02T07:58:13.135Z,12.04
2023-01-02T07:59:13.032Z,19.68
2023-01-02T08:00:12.954Z,17.00
2023-01-02T08:01:13.003Z,9.52
2023-01-02T08:02:13.554Z,15.88
2023-01-02T08:03:13.615Z,29.24
2023-01-02T08:04:14.028Z,18.56
2023-01-02T08:05:12.949Z,20.24
2023-01-02T08:06:13.244Z,22.84
2023-01-02T08:07:13.395Z,23.60
2023-01-02T08:08:13.293Z,17.16
2023-01-02T08:09:13.494Z,25.32
2023-01-02T08:10:13.560Z,8.08
2023-01-02T08:11:13.580Z,3.68
2023-01-02T08:12:13.626Z,22.20
2023-01-02T08:13:13.953Z,10.48
2023-01-02T08:14:18.358Z,8.44
2023-01-02T08:15:13.606Z,9.28
2023-01-02T08:16:13.565Z,8.76
2023-01-02T08:17:13.644Z,18.08
2023-01-02T08:18:13.732Z,21.88
2023-01-02T08:19:14.291Z,6.92
2023-01-02T08:20:13.409Z,6.28
2023-01-02T08:21:13.916Z,15.16
2023-01-02T08:22:13.394Z,10.44
2023-01-02T08:23:13.484Z,14.72
2023-01-02T08:24:13.834Z,16.68
2023-01-02T08:25:14.184Z,12.88
2023-01-02T08:26:13.066Z,11.84
2023-01-02T08:27:12.995Z,6.32
2023-01-02T08:28:13.218Z,11.08
2023-01-02T08:29:13.172Z,8.96
2023-01-02T08:30:13.043Z,14.56
2023-01-02T08:31:13.416Z,7.88
2023-01-02T08:32:13.924Z,7.16
2023-01-02T08:33:13.028Z,13.08
2023-01-02T08:34:12.989Z,20.28
2023-01-02T08:35:12.922Z,8.56
2023-01-02T08:36:12.835Z,5.60
2023-01-02T08:37:14.112Z,10.96
2023-01-02T08:38:13.002Z,12.76
2023-01-02T08:39:12.936Z,9.48
2023-01-02T08:40:12.849Z,9.20
2023-01-02T08:41:13.756Z,6.44
2023-01-02T08:42:13.756Z,10.00
2023-01-02T08:43:16.191Z,4.12
2023-01-02T08:44:13.568Z,5.48
2023-01-02T08:45:13.527Z,5.44
2023-01-02T08:46:13.832Z,6.52
2023-01-02T08:47:13.844Z,7.16
2023-01-02T08:48:20.251Z,5.56
2023-01-02T08:49:13.479Z,2.96
2023-01-02T08:50:13.557Z,2.00
2023-01-02T08:51:13.693Z,12.04
2023-01-02T08:52:13.589Z,9.32
2023-01-02T08:53:13.887Z,7.24
2023-01-02T08:54:12.900Z,5.64
2023-01-02T08:55:13.002Z,4.28
2023-01-02T08:56:13.008Z,7.80
2023-01-02T08:57:13.176Z,5.92
2023-01-02T08:58:13.319Z,7.60
2023-01-02T08:59:13.365Z,5.56
2023-01-02T09:00:13.291Z,8.56
2023-01-02T09:01:13.575Z,10.24
2023-01-02T09:02:14.124Z,8.72
2023-01-02T09:03:13.203Z,8.60
2023-01-02T09:04:13.925Z,7.92
2023-01-02T09:05:13.315Z,8.08
2023-01-02T09:06:18.112Z,4.49
2023-01-02T09:07:13.803Z,8.68
2023-01-02T09:08:14.263Z,4.12
2023-01-02T09:09:13.248Z,10.24
2023-01-02T09:10:13.358Z,6.24
2023-01-02T09:11:13.594Z,11.72
2023-01-02T09:12:13.599Z,9.16
2023-01-02T09:13:13.485Z,7.56
2023-01-02T09:14:13.709Z,7.80
2023-01-02T09:15:13.957Z,13.32
2023-01-02T09:16:13.158Z,16.16
2023-01-02T09:17:13.227Z,23.16
2023-01-02T09:18:13.265Z,24.04
2023-01-02T09:19:13.351Z,10.72
2023-01-02T09:20:13.346Z,13.16
2023-01-02T09:21:13.435Z,13.16
2023-01-02T09:22:13.336Z,17.32
2023-01-02T09:23:13.542Z,8.28
2023-01-02T09:24:13.381Z,15.88
2023-01-02T09:25:15.503Z,14.48
2023-01-02T09:26:12.999Z,18.20
2023-01-02T09:27:13.169Z,21.68
2023-01-02T09:28:13.094Z,15.16
2023-01-02T09:29:13.005Z,10.84
2023-01-02T09:30:13.261Z,7.96
2023-01-02T09:31:13.260Z,16.32
2023-01-02T09:32:13.449Z,14.84
2023-01-02T09:33:13.407Z,5.84
2023-01-02T09:34:13.309Z,8.48
2023-01-02T09:35:13.552Z,5.16
2023-01-02T09:36:13.482Z,6.68
2023-01-02T09:37:13.401Z,9.96
2023-01-02T09:38:13.490Z,8.72
2023-01-02T09:39:13.411Z,8.24
2023-01-02T09:40:13.338Z,10.64
2023-01-02T09:41:13.627Z,14.64
2023-01-02T09:42:13.582Z,16.92
2023-01-02T09:43:13.611Z,14.92
2023-01-02T09:44:13.553Z,9.36
2023-01-02T09:45:13.492Z,14.36
2023-01-02T09:46:13.491Z,17.64
2023-01-02T09:47:13.458Z,13.24
2023-01-02T09:48:13.556Z,16.76
2023-01-02T09:49:13.463Z,20.32
2023-01-02T09:50:13.277Z,24.48
2023-01-02T09:51:13.265Z,19.20
2023-01-02T09:52:13.119Z,20.92
2023-01-02T09:53:13.369Z,20.16
2023-01-02T09:54:13.653Z,19.04
2023-01-02T09:55:13.625Z,17.52
2023-01-02T09:56:19.346Z,13.28
2023-01-02T09:57:13.526Z,14.12
2023-01-02T09:58:13.528Z,13.20
2023-01-02T09:59:13.684Z,16.76
2023-01-02T10:00:13.911Z,15.08
2023-01-02T10:01:12.918Z,19.80
2023-01-02T10:02:12.931Z,14.80
2023-01-02T10:03:13.284Z,21.08
2023-01-02T10:04:13.265Z,13.88
2023-01-02T10:05:13.339Z,14.24
2023-01-02T10:06:13.343Z,15.12
2023-01-02T10:07:13.291Z,12.20
2023-01-02T10:08:13.348Z,10.76
2023-01-02T10:09:13.424Z,12.24
2023-01-02T10:10:13.370Z,14.64
2023-01-02T10:11:13.329Z,9.84
2023-01-02T10:12:13.238Z,12.52
2023-01-02T10:13:13.154Z,14.12
2023-01-02T10:14:20.796Z,14.92
2023-01-02T10:15:13.122Z,10.28
2023-01-02T10:16:13.353Z,9.36
2023-01-02T10:17:13.235Z,6.24
2023-01-02T10:18:13.451Z,9.24
2023-01-02T10:19:13.363Z,6.92
2023-01-02T10:20:15.643Z,9.08
2023-01-02T10:21:12.828Z,14.32
2023-01-02T10:22:14.666Z,13.64
2023-01-02T10:23:13.905Z,7.48
2023-01-02T10:24:12.972Z,12.16
2023-01-02T10:25:13.275Z,14.92
2023-01-02T10:26:13.552Z,17.76
2023-01-02T10:27:13.710Z,10.80
2023-01-02T10:28:14.080Z,14.40
2023-01-02T10:29:13.136Z,15.60
2023-01-02T10:30:12.946Z,10.52
2023-01-02T10:31:12.847Z,17.44
2023-01-02T10:32:12.755Z,15.48
2023-01-02T10:33:13.984Z,21.84
2023-01-02T10:34:13.247Z,19.24
2023-01-02T10:35:13.221Z,19.08
2023-01-02T10:36:13.180Z,12.44
2023-01-02T10:37:13.478Z,11.08
2023-01-02T10:38:13.727Z,13.40
2023-01-02T10:39:13.724Z,14.68
2023-01-02T10:40:13.625Z,12.20
2023-01-02T10:41:13.702Z,11.24
2023-01-02T10:42:15.108Z,12.76
2023-01-02T10:43:13.307Z,16.68
2023-01-02T10:44:13.571Z,20.04
2023-01-02T10:45:13.856Z,20.68
2023-01-02T10:46:13.949Z,16.60
2023-01-02T10:47:13.133Z,14.76
2023-01-02T10:48:13.365Z,10.44
2023-01-02T10:49:13.436Z,16.24
2023-01-02T10:50:13.330Z,15.40
2023-01-02T10:51:13.263Z,14.52
2023-01-02T10:52:13.370Z,23.72
2023-01-02T10:53:13.421Z,15.12
2023-01-02T10:54:13.241Z,12.28
2023-01-02T10:55:13.173Z,12.68
2023-01-02T10:56:13.416Z,15.92
2023-01-02T10:57:13.394Z,15.88
2023-01-02T10:58:13.305Z,14.88
2023-01-02T10:59:13.367Z,16.68
2023-01-02T11:00:13.256Z,16.84
2023-01-02T11:01:13.651Z,12.72
2023-01-02T11:02:13.479Z,13.64
2023-01-02T11:03:13.789Z,9.08
2023-01-02T11:04:13.783Z,9.48
2023-01-02T11:05:13.822Z,7.04
2023-01-02T11:06:25.940Z,9.00
2023-01-02T11:07:13.660Z,12.72
2023-01-02T11:08:13.644Z,8.72
2023-01-02T11:09:13.717Z,19.64
2023-01-02T11:10:13.747Z,17.72
2023-01-02T11:11:13.603Z,12.04
2023-01-02T11:12:13.725Z,16.92
2023-01-02T11:13:14.101Z,18.84
2023-01-02T11:14:13.020Z,5.72
2023-01-02T11:15:13.128Z,12.68
2023-01-02T11:16:13.116Z,14.20
2023-01-02T11:17:13.153Z,16.56
2023-01-02T11:18:13.080Z,15.24
2023-01-02T11:19:13.135Z,10.32
2023-01-02T11:20:13.112Z,11.48
2023-01-02T11:21:13.082Z,10.12
2023-01-02T11:22:13.090Z,12.08
2023-01-02T11:23:13.103Z,11.88
2023-01-02T11:24:13.467Z,16.84
2023-01-02T11:25:13.428Z,15.20
2023-01-02T11:26:13.701Z,12.04
2023-01-02T11:27:14.007Z,26.64
2023-01-02T11:28:12.959Z,8.80
2023-01-02T11:29:13.022Z,16.20
2023-01-02T11:30:13.204Z,21.88
2023-01-02T11:31:13.192Z,11.64
2023-01-02T11:32:13.295Z,9.32
2023-01-02T11:33:13.406Z,16.72
2023-01-02T11:34:13.629Z,11.00
2023-01-02T11:35:13.691Z,15.64
2023-01-02T11:36:13.665Z,10.72
2023-01-02T11:37:13.601Z,15.16
2023-01-02T11:38:13.691Z,16.60
2023-01-02T11:39:14.253Z,15.32
2023-01-02T11:40:13.395Z,13.64
2023-01-02T11:41:13.313Z,13.28
2023-01-02T11:42:13.440Z,13.20
2023-01-02T11:43:13.524Z,14.48
2023-01-02T11:44:18.760Z,17.72
2023-01-02T11:45:13.416Z,12.32
2023-01-02T11:46:13.366Z,14.16
2023-01-02T11:47:13.588Z,10.84
2023-01-02T11:48:13.711Z,14.72
2023-01-02T11:49:14.805Z,11.76
2023-01-02T11:50:13.750Z,14.76
2023-01-02T11:51:17.490Z,18.28
2023-01-02T11:52:14.661Z,13.84
2023-01-02T11:53:13.563Z,17.80
2023-01-02T11:54:13.451Z,8.72
2023-01-02T11:55:14.021Z,11.32
2023-01-02T11:56:13.249Z,22.48
2023-01-02T11:57:18.548Z,9.32
2023-01-02T11:58:12.971Z,8.04
2023-01-02T11:59:13.722Z,7.68
2023-01-02T12:00:13.694Z,8.36
2023-01-02T12:01:13.881Z,8.44
2023-01-02T12:02:12.977Z,11.80
2023-01-02T12:03:18.325Z,15.00
2023-01-02T12:04:13.703Z,21.08
2023-01-02T12:05:13.658Z,11.60
2023-01-02T12:06:13.585Z,9.96
2023-01-02T12:07:13.745Z,5.84
2023-01-02T12:08:13.738Z,3.64
2023-01-02T12:09:14.137Z,11.28
2023-01-02T12:10:13.215Z,9.48
2023-01-02T12:11:13.144Z,8.12
2023-01-02T12:12:13.159Z,7.80
2023-01-02T12:13:13.430Z,8.44
2023-01-02T12:14:13.502Z,15.28
2023-01-02T12:15:13.700Z,10.80
2023-01-02T12:16:14.146Z,10.48
2023-01-02T12:17:13.139Z,8.60
2023-01-02T12:18:13.207Z,8.56
2023-01-02T12:19:13.295Z,9.72
2023-01-02T12:20:13.264Z,15.32
2023-01-02T12:21:13.137Z,12.92
2023-01-02T12:22:13.189Z,12.00
2023-01-02T12:23:13.253Z,14.92
2023-01-02T12:24:13.428Z,10.72
2023-01-02T12:25:13.378Z,11.08
2023-01-02T12:26:13.407Z,12.16
2023-01-02T12:27:13.388Z,13.76
2023-01-02T12:28:13.651Z,12.44
2023-01-02T12:29:13.667Z,11.96
2023-01-02T12:30:13.787Z,6.12
2023-01-02T12:31:13.848Z,9.24
2023-01-02T12:32:14.000Z,11.40
2023-01-02T12:33:13.040Z,9.64
2023-01-02T12:34:13.154Z,10.96
2023-01-02T12:35:13.820Z,15.12
2023-01-02T12:36:13.799Z,17.24
2023-01-02T12:37:14.176Z,15.60
2023-01-02T12:38:15.944Z,12.08
2023-01-02T12:39:13.692Z,14.60
2023-01-02T12:40:14.009Z,13.88
2023-01-02T12:41:13.518Z,17.00
2023-01-02T12:42:13.801Z,22.24
2023-01-02T12:43:14.155Z,15.08
2023-01-02T12:44:13.196Z,15.24
2023-01-02T12:45:13.287Z,18.68
2023-01-02T12:46:13.588Z,20.60
2023-01-02T12:47:13.560Z,15.28
2023-01-02T12:48:13.517Z,13.56
2023-01-02T12:49:13.528Z,18.40
2023-01-02T12:50:13.777Z,13.12
2023-01-02T12:51:13.706Z,14.64
2023-01-02T12:52:14.002Z,12.24
2023-01-02T12:53:12.932Z,17.00
2023-01-02T12:54:20.259Z,17.12
2023-01-02T12:55:14.001Z,10.12
2023-01-02T12:56:13.356Z,11.20
2023-01-02T12:57:16.991Z,17.21
2023-01-02T12:58:14.027Z,15.00
2023-01-02T12:59:13.340Z,11.68
2023-01-02T13:00:13.355Z,15.88
2023-01-02T13:01:13.532Z,11.04
2023-01-02T13:02:14.061Z,8.00
2023-01-02T13:03:18.558Z,11.56
2023-01-02T13:04:18.012Z,15.32
2023-01-02T13:05:13.184Z,9.80
2023-01-02T13:06:46.046Z,20.76
2023-01-02T13:07:14.023Z,16.44
2023-01-02T13:08:13.135Z,18.60
2023-01-02T13:09:19.950Z,13.16
2023-01-02T13:10:13.228Z,12.32
2023-01-02T13:11:13.278Z,13.00
2023-01-02T13:12:13.237Z,17.12
2023-01-02T13:13:13.246Z,20.00
2023-01-02T13:14:13.298Z,13.68
2023-01-02T13:15:13.383Z,15.32
2023-01-02T13:16:24.371Z,12.40
2023-01-02T13:17:13.098Z,13.84
2023-01-02T13:18:13.151Z,8.36
2023-01-02T13:19:13.296Z,6.72
2023-01-02T13:20:13.486Z,11.52
2023-01-02T13:21:13.710Z,12.72
2023-01-02T13:22:14.145Z,17.40
2023-01-02T13:23:13.511Z,12.88
2023-01-02T13:24:14.090Z,11.32
2023-01-02T13:25:13.069Z,10.64
2023-01-02T13:26:13.378Z,10.76
2023-01-02T13:27:13.657Z,9.40
2023-01-02T13:28:13.844Z,11.48
2023-01-02T13:29:13.886Z,12.44
2023-01-02T13:30:16.602Z,13.92